createdAt,value
2018-01-27T01:37:23.093Z,0.00
2018-01-27T01:37:23.666Z,0.00
2018-01-27T01:37:24.263Z,0.00
2018-01-27T01:37:24.862Z,0.00
2018-01-27T01:37:25.463Z,0.00
2018-01-27T01:37:26.061Z,0.00
2018-01-27T01:37:26.661Z,0.00
2018-01-27T01:37:27.261Z,0.00
2018-01-27T01:38:25.771Z,0.00
2018-01-27T01:38:26.332Z,0.00
2018-01-27T01:38:26.931Z,0.00
2018-01-27T01:38:27.531Z,0.00
2018-01-27T01:38:28.131Z,0.00
2018-01-27T01:38:28.731Z,0.00
2018-01-27T01:38:29.330Z,0.00
2018-01-27T01:38:29.930Z,0.00
2018-01-27T01:38:30.530Z,0.00
2018-01-27T01:38:31.130Z,0.00
2018-01-27T01:38:31.729Z,0.00
2018-01-27T01:38:32.330Z,0.00
2018-01-27T01:38:32.929Z,0.00
2018-01-27T01:38:33.530Z,0.00
2018-01-27T01:38:34.127Z,0.00
2018-01-27T01:38:34.728Z,0.00
2018-01-27T02:54:34.513Z,0.00
2018-01-27T02:55:48.916Z,0.00
2018-01-27T02:55:49.498Z,0.00
2018-01-27T02:55:50.100Z,0.00
2018-01-27T02:55:50.696Z,0.00
2018-01-27T02:55:51.291Z,0.00
2018-01-27T02:55:51.892Z,0.00
2018-01-27T02:55:52.494Z,0.00
2018-01-27T02:55:53.090Z,0.00
2018-01-27T02:56:48.086Z,0.00
2018-01-27T02:56:48.684Z,0.00
2018-01-27T02:56:49.281Z,0.00
2018-01-27T02:56:49.880Z,0.00
2018-01-27T02:56:50.481Z,0.00
2018-01-27T02:56:51.083Z,0.00
2018-01-27T02:56:51.680Z,0.00
2018-01-27T02:57:45.231Z,0.00
2018-01-27T02:57:45.824Z,0.00
2018-01-27T02:57:46.428Z,0.00
2018-01-27T02:57:47.022Z,0.00
2018-01-27T02:57:47.624Z,0.00
2018-01-27T02:57:48.222Z,0.00
2018-01-27T02:57:48.821Z,0.00
2018-01-27T02:57:49.423Z,0.00
2018-01-27T02:58:44.413Z,0.00
2018-01-27T02:58:45.010Z,0.00
2018-01-27T02:58:45.609Z,0.00
2018-01-27T02:58:46.209Z,0.00
2018-01-27T02:58:46.809Z,0.00
2018-01-27T02:58:47.414Z,0.00
2018-01-27T02:58:48.008Z,0.00
2018-01-27T02:59:49.064Z,0.00
2018-01-27T02:59:49.626Z,0.00
2018-01-27T02:59:50.224Z,0.00
2018-01-27T02:59:50.829Z,0.00
2018-01-27T02:59:51.424Z,0.00
2018-01-27T02:59:52.024Z,0.00
2018-01-27T02:59:52.625Z,0.00
2018-01-27T02:59:53.225Z,0.00
2018-01-27T02:59:53.823Z,0.00
2018-01-27T02:59:54.445Z,0.00
2018-01-27T02:59:55.029Z,0.00
2018-01-27T02:59:55.622Z,0.00
2018-01-27T03:00:49.141Z,0.00
2018-01-27T03:00:49.736Z,0.00
2018-01-27T03:00:50.336Z,0.00
2018-01-27T03:00:50.935Z,0.00
2018-01-27T03:00:51.534Z,0.00
2018-01-27T03:00:52.134Z,0.00
2018-01-27T03:00:52.733Z,0.00
2018-01-27T03:00:53.346Z,0.00
2018-01-27T03:01:46.901Z,0.00
2018-01-27T03:01:47.505Z,0.00
2018-01-27T03:01:48.097Z,0.00
2018-01-27T03:01:48.701Z,0.00
2018-01-27T03:01:49.298Z,0.00
2018-01-27T03:01:49.900Z,0.00
2018-01-27T03:01:50.496Z,0.00
2018-01-27T03:01:51.097Z,0.00
2018-01-27T03:02:44.652Z,0.00
2018-01-27T03:02:45.244Z,0.00
2018-01-27T03:02:45.848Z,0.00
2018-01-27T03:02:46.442Z,0.00
2018-01-27T03:02:47.043Z,0.00
2018-01-27T03:02:47.643Z,0.00
2018-01-27T03:02:48.243Z,0.00
2018-01-27T03:02:48.842Z,0.00
2018-01-27T03:03:42.298Z,0.00
2018-01-27T03:03:42.895Z,0.00
2018-01-27T03:03:43.494Z,0.00
2018-01-27T03:03:44.094Z,0.00
2018-01-27T03:03:44.695Z,0.00
2018-01-27T03:03:45.294Z,0.00
2018-01-27T03:03:45.893Z,0.00
2018-01-27T03:03:46.494Z,0.00
2018-01-27T03:04:44.973Z,0.00
2018-01-27T03:04:45.562Z,0.00
2018-01-27T03:04:46.162Z,0.00
2018-01-27T03:04:46.762Z,0.00
2018-01-27T03:04:47.361Z,0.00
2018-01-27T03:04:47.962Z,0.00
2018-01-27T03:04:48.565Z,0.00
2018-01-27T03:04:49.161Z,0.00
2018-01-27T03:04:49.763Z,0.00
2018-01-27T03:04:50.362Z,0.00
2018-01-27T03:04:50.965Z,0.00
2018-01-27T03:04:51.560Z,0.00
2018-01-27T03:04:52.163Z,0.00
2018-01-27T03:04:52.759Z,0.00
2018-01-27T03:04:53.361Z,0.00
2018-01-27T03:04:53.959Z,0.00
2018-01-27T04:07:40.674Z,0.00
2018-01-27T04:07:41.181Z,0.00
2018-01-27T04:07:41.781Z,0.00
2018-01-27T04:07:42.378Z,0.00
2018-01-27T04:07:42.978Z,0.00
2018-01-27T04:07:43.582Z,0.00
2018-01-27T05:05:03.430Z,0.00
2018-01-27T05:05:03.995Z,0.00
2018-01-27T05:05:04.593Z,0.00
2018-01-27T05:05:05.197Z,0.00
2018-01-27T05:05:05.794Z,0.00
2018-01-27T05:05:06.396Z,0.00
2018-01-27T05:05:06.994Z,0.00
2018-01-27T05:06:00.438Z,0.00
2018-01-27T05:06:01.033Z,0.00
2018-01-27T05:06:01.653Z,0.00
2018-01-27T05:06:02.231Z,0.00
2018-01-27T05:06:02.831Z,0.00
2018-01-27T05:06:03.430Z,0.00
2018-01-27T05:06:04.031Z,0.00
2018-01-27T05:06:04.633Z,0.00
2018-01-27T05:07:02.083Z,0.00
2018-01-27T05:07:02.678Z,0.00
2018-01-27T05:07:03.277Z,0.00
2018-01-27T05:07:03.880Z,0.00
2018-01-27T05:07:04.482Z,0.00
2018-01-27T05:07:05.077Z,0.00
2018-01-27T05:07:05.678Z,0.00
2018-01-27T05:07:06.277Z,0.00
2018-01-27T05:07:59.736Z,0.00
2018-01-27T05:08:00.331Z,0.00
2018-01-27T05:08:00.937Z,0.00
2018-01-27T05:08:01.530Z,0.00
2018-01-27T05:08:02.133Z,0.00
2018-01-27T05:08:02.731Z,0.00
2018-01-27T05:08:03.330Z,0.00
2018-01-27T05:08:03.930Z,0.00
2018-01-27T05:08:57.898Z,0.00
2018-01-27T05:08:58.493Z,0.00
2018-01-27T05:08:59.093Z,0.00
2018-01-27T05:08:59.693Z,0.00
2018-01-27T05:09:00.293Z,0.00
2018-01-27T05:09:00.892Z,0.00
2018-01-27T05:09:01.491Z,0.00
2018-01-27T05:09:54.936Z,0.00
2018-01-27T05:09:55.531Z,0.00
2018-01-27T05:09:56.136Z,0.00
2018-01-27T05:09:56.732Z,0.00
2018-01-27T05:09:57.330Z,0.00
2018-01-27T05:09:57.934Z,0.00
2018-01-27T05:09:58.530Z,0.00
2018-01-27T05:09:59.130Z,0.00
2018-01-27T05:10:54.159Z,0.00
2018-01-27T05:10:54.720Z,0.00
2018-01-27T05:10:55.318Z,0.00
2018-01-27T05:10:55.919Z,0.00
2018-01-27T05:10:56.520Z,0.00
2018-01-27T05:10:57.129Z,0.00
2018-01-27T05:10:57.717Z,0.00
2018-01-27T05:11:51.264Z,0.00
2018-01-27T05:11:51.862Z,0.00
2018-01-27T05:11:52.461Z,0.00
2018-01-27T05:11:53.060Z,0.00
2018-01-27T05:11:53.661Z,0.00
2018-01-27T05:11:54.262Z,0.00
2018-01-27T05:11:54.861Z,0.00
2018-01-27T05:11:55.462Z,0.00
2018-01-27T05:12:48.919Z,0.00
2018-01-27T05:12:49.509Z,0.00
2018-01-27T05:12:50.109Z,0.00
2018-01-27T05:12:50.711Z,0.00
2018-01-27T05:12:51.309Z,0.00
2018-01-27T05:12:51.962Z,0.00
2018-01-27T05:12:52.509Z,0.00
2018-01-27T05:12:53.111Z,0.00
2018-01-27T05:13:46.569Z,0.00
2018-01-27T05:13:47.163Z,0.00
2018-01-27T05:13:47.765Z,0.00
2018-01-27T05:13:48.362Z,0.00
2018-01-27T05:13:48.967Z,0.00
2018-01-27T05:13:49.562Z,0.00
2018-01-27T05:13:50.162Z,0.00
2018-01-27T05:13:50.765Z,0.00
2018-01-27T05:14:44.221Z,0.00
2018-01-27T05:14:44.822Z,0.00
2018-01-27T05:14:45.414Z,0.00
2018-01-27T05:14:46.013Z,0.00
2018-01-27T05:14:46.617Z,0.00
2018-01-27T05:14:47.214Z,0.00
2018-01-27T05:14:47.814Z,0.00
2018-01-27T05:14:48.414Z,0.00
2018-01-27T05:15:42.381Z,0.00
2018-01-27T05:15:42.990Z,0.00
2018-01-27T05:15:43.577Z,0.00
2018-01-27T05:15:44.180Z,0.00
2018-01-27T05:15:44.777Z,0.00
2018-01-27T05:15:45.377Z,0.00
2018-01-27T05:15:45.980Z,0.00
2018-01-27T05:17:21.532Z,0.00
2018-01-27T05:17:22.103Z,0.00
2018-01-27T05:17:22.704Z,0.00
2018-01-27T05:17:23.306Z,0.00
2018-01-27T05:17:23.948Z,0.00
2018-01-27T05:18:19.260Z,0.00
2018-01-27T05:18:19.855Z,0.00
2018-01-27T05:18:20.458Z,0.00
2018-01-27T05:18:21.056Z,0.00
2018-01-27T05:18:21.666Z,0.00
2018-01-27T05:18:22.257Z,0.00
2018-01-27T05:18:22.860Z,0.00
2018-01-27T05:19:17.400Z,0.00
2018-01-27T05:19:17.910Z,0.00
2018-01-27T05:19:18.504Z,0.00
2018-01-27T05:19:19.106Z,0.00
2018-01-27T05:19:19.703Z,0.00
2018-01-27T05:19:20.303Z,0.00
2018-01-27T05:19:20.904Z,0.00
2018-01-27T05:20:14.874Z,0.00
2018-01-27T05:20:15.469Z,0.00
2018-01-27T05:20:16.071Z,0.00
2018-01-27T05:20:16.668Z,0.00
2018-01-27T05:20:17.269Z,0.00
2018-01-27T05:20:17.868Z,0.00
2018-01-27T05:20:18.467Z,0.00
2018-01-27T05:20:19.068Z,0.00
2018-01-27T05:21:25.631Z,0.00
2018-01-27T05:21:26.227Z,0.00
2018-01-27T05:21:26.863Z,0.00
2018-01-27T05:21:27.425Z,0.00
2018-01-27T05:21:28.027Z,0.00
2018-01-27T05:22:23.525Z,0.00
2018-01-27T05:22:24.084Z,0.00
2018-01-27T05:22:24.684Z,0.00
2018-01-27T05:22:25.282Z,0.00
2018-01-27T05:22:25.882Z,0.00
2018-01-27T05:22:26.481Z,0.00
2018-01-27T05:22:27.085Z,0.00
2018-01-27T05:23:20.626Z,0.00
2018-01-27T05:23:21.228Z,0.00
2018-01-27T05:23:21.824Z,0.00
2018-01-27T05:23:22.424Z,0.00
2018-01-27T05:23:23.023Z,0.00
2018-01-27T05:23:23.624Z,0.00
2018-01-27T05:23:24.224Z,0.00
2018-01-27T05:23:24.828Z,0.00
2018-01-27T05:24:18.283Z,0.00
2018-01-27T05:24:18.876Z,0.00
2018-01-27T05:24:19.476Z,0.00
2018-01-27T05:24:20.075Z,0.00
2018-01-27T05:24:20.675Z,0.00
2018-01-27T05:24:21.277Z,0.00
2018-01-27T05:24:21.878Z,0.00
2018-01-27T05:24:22.475Z,0.00
2018-01-27T05:25:19.005Z,0.00
2018-01-27T05:25:19.601Z,0.00
2018-01-27T05:25:20.217Z,0.00
2018-01-27T05:26:13.683Z,0.00
2018-01-27T05:26:14.281Z,0.00
2018-01-27T05:26:14.881Z,0.00
2018-01-27T05:26:15.480Z,0.00
2018-01-27T05:26:16.080Z,0.00
2018-01-27T05:26:16.680Z,0.00
2018-01-27T05:26:17.280Z,0.00
2018-01-27T05:26:17.881Z,0.00
2018-01-27T05:27:24.988Z,0.00
2018-01-27T05:27:25.552Z,0.00
2018-01-27T05:28:19.026Z,0.00
2018-01-27T05:28:19.619Z,0.00
2018-01-27T05:28:20.219Z,0.00
2018-01-27T05:28:20.820Z,0.00
2018-01-27T05:28:21.419Z,0.00
2018-01-27T05:28:22.019Z,0.00
2018-01-27T05:28:23.582Z,0.00
2018-01-27T05:29:19.029Z,0.00
2018-01-27T05:29:19.626Z,0.00
2018-01-27T05:29:20.225Z,0.00
2018-01-27T05:29:20.824Z,0.00
2018-01-27T05:29:21.427Z,0.00
2018-01-27T05:29:22.026Z,0.00
2018-01-27T05:30:17.090Z,0.00
2018-01-27T05:30:17.687Z,0.00
2018-01-27T05:30:18.287Z,0.00
2018-01-27T05:30:18.887Z,0.00
2018-01-27T05:30:19.486Z,0.00
2018-01-27T05:30:20.085Z,0.00
2018-01-27T05:30:20.692Z,0.00
2018-01-27T05:30:21.287Z,0.00
2018-01-27T05:31:14.744Z,0.00
2018-01-27T05:31:15.339Z,0.00
2018-01-27T05:31:15.963Z,0.00
2018-01-27T05:31:16.540Z,0.00
2018-01-27T05:31:17.138Z,0.00
2018-01-27T05:31:17.738Z,0.00
2018-01-27T05:31:18.338Z,0.00
2018-01-27T05:31:18.942Z,0.00
2018-01-27T05:32:19.978Z,0.00
2018-01-27T05:32:20.567Z,0.00
2018-01-27T05:32:21.170Z,0.00
2018-01-27T05:32:21.767Z,0.00
2018-01-27T05:32:22.368Z,0.00
2018-01-27T05:32:22.976Z,0.00
2018-01-27T05:32:23.567Z,0.00
2018-01-27T05:32:24.167Z,0.00
2018-01-27T05:32:24.788Z,0.00
2018-01-27T05:32:25.368Z,0.00
2018-01-27T05:32:26.007Z,0.00
2018-01-27T05:32:26.609Z,0.00
2018-01-27T05:33:27.589Z,0.00
2018-01-27T05:33:28.152Z,0.00
2018-01-27T05:33:28.754Z,0.00
2018-01-27T05:33:29.352Z,0.00
2018-01-27T05:33:29.952Z,0.00
2018-01-27T05:33:30.550Z,0.00
2018-01-27T05:33:31.149Z,0.00
2018-01-27T05:33:31.752Z,0.00
2018-01-27T05:33:32.350Z,0.00
2018-01-27T05:33:32.950Z,0.00
2018-01-27T05:33:33.549Z,0.00
2018-01-27T05:33:34.149Z,0.00
2018-01-27T05:35:46.452Z,0.00
2018-01-27T05:35:47.043Z,0.00
2018-01-27T05:35:47.642Z,0.00
2018-01-27T05:35:48.245Z,0.00
2018-01-27T05:35:48.878Z,0.00
2018-01-27T05:35:49.441Z,0.00
2018-01-27T05:35:50.039Z,0.00
2018-01-27T05:35:50.646Z,0.00
2018-01-27T05:35:51.241Z,0.00
2018-01-27T05:35:51.840Z,0.00
2018-01-27T05:35:52.439Z,0.00
2018-01-27T05:35:53.040Z,0.00
2018-01-27T05:36:48.570Z,0.00
2018-01-27T05:36:49.165Z,0.00
2018-01-27T05:36:49.768Z,0.00
2018-01-27T05:36:50.365Z,0.00
2018-01-27T05:36:50.965Z,0.00
2018-01-27T05:36:51.563Z,0.00
2018-01-27T05:38:16.154Z,0.00
2018-01-27T05:38:16.717Z,0.00
2018-01-27T05:38:17.319Z,0.00
2018-01-27T05:38:17.918Z,0.00
2018-01-27T05:38:18.517Z,0.00
2018-01-27T05:38:19.118Z,0.00
2018-01-27T05:38:19.717Z,0.00
2018-01-27T05:39:13.262Z,0.00
2018-01-27T05:39:13.858Z,0.00
2018-01-27T05:39:14.459Z,0.00
2018-01-27T05:39:15.060Z,0.00
2018-01-27T05:39:15.658Z,0.00
2018-01-27T05:39:16.258Z,0.00
2018-01-27T05:39:16.862Z,0.00
2018-01-27T05:39:17.463Z,0.00
2018-01-27T05:40:21.522Z,0.00
2018-01-27T05:40:22.027Z,0.00
2018-01-27T05:41:27.099Z,0.00
2018-01-27T05:41:27.695Z,0.00
2018-01-27T05:41:28.295Z,0.00
2018-01-27T05:41:28.896Z,0.00
2018-01-27T05:41:29.495Z,0.00
2018-01-27T06:05:55.045Z,0.00
2018-01-27T06:05:55.610Z,0.00
2018-01-27T06:05:56.209Z,0.00
2018-01-27T06:05:56.806Z,0.00
2018-01-27T06:05:57.407Z,0.00
2018-01-27T06:05:58.007Z,0.00
2018-01-27T06:05:58.606Z,0.00
2018-01-27T06:06:57.069Z,0.00
2018-01-27T06:06:57.664Z,0.00
2018-01-27T06:06:58.263Z,0.00
2018-01-27T06:06:58.862Z,0.00
2018-01-27T06:06:59.462Z,0.00
2018-01-27T06:07:00.062Z,0.00
2018-01-27T06:07:00.661Z,0.00
2018-01-27T06:07:01.262Z,0.00
2018-01-27T06:07:01.862Z,0.00
2018-01-27T06:07:02.461Z,0.00
2018-01-27T06:07:03.061Z,0.00
2018-01-27T06:07:03.708Z,0.00
2018-01-27T06:07:04.259Z,0.00
2018-01-27T06:07:04.858Z,0.00
2018-01-27T06:07:05.457Z,0.00
2018-01-27T06:07:06.056Z,0.00
2018-01-27T06:07:06.670Z,0.00
2018-01-27T06:08:00.658Z,0.00
2018-01-27T06:08:01.255Z,0.00
2018-01-27T06:08:01.872Z,0.00
2018-01-27T06:08:02.453Z,0.00
2018-01-27T06:08:03.052Z,0.00
2018-01-27T06:08:03.653Z,0.00
2018-01-27T06:08:04.253Z,0.00
2018-01-27T06:08:04.856Z,0.00
2018-01-27T06:08:58.309Z,0.00
2018-01-27T06:08:58.909Z,0.00
2018-01-27T06:08:59.506Z,0.00
2018-01-27T06:09:00.107Z,0.00
2018-01-27T06:09:00.704Z,0.00
2018-01-27T06:09:01.309Z,0.00
2018-01-27T06:09:01.917Z,0.00
2018-01-27T06:09:02.507Z,0.00
2018-01-27T06:09:55.963Z,0.00
2018-01-27T06:09:56.574Z,0.00
2018-01-27T06:09:57.157Z,0.00
2018-01-27T06:09:57.759Z,0.00
2018-01-27T06:09:58.359Z,0.00
2018-01-27T06:09:58.958Z,0.00
2018-01-27T06:10:00.534Z,0.00
2018-01-27T06:10:54.537Z,0.00
2018-01-27T06:10:55.130Z,0.00
2018-01-27T06:10:55.733Z,0.00
2018-01-27T06:10:56.330Z,0.00
2018-01-27T06:10:56.930Z,0.00
2018-01-27T06:10:57.530Z,0.00
2018-01-27T06:10:58.133Z,0.00
2018-01-27T06:10:58.731Z,0.00
2018-01-27T06:11:52.313Z,0.00
2018-01-27T06:11:52.886Z,0.00
2018-01-27T06:11:53.487Z,0.00
2018-01-27T06:11:54.086Z,0.00
2018-01-27T06:11:54.684Z,0.00
2018-01-27T06:11:55.286Z,0.00
2018-01-27T06:11:55.889Z,0.00
2018-01-27T06:11:56.486Z,0.00
2018-01-27T06:12:50.045Z,0.00
2018-01-27T06:12:50.641Z,0.00
2018-01-27T06:12:51.240Z,0.00
2018-01-27T06:12:51.841Z,0.00
2018-01-27T06:12:52.440Z,0.00
2018-01-27T06:12:53.047Z,0.00
2018-01-27T06:12:53.641Z,0.00
2018-01-27T06:12:54.243Z,0.00
2018-01-27T06:13:47.799Z,0.00
2018-01-27T06:13:48.395Z,0.00
2018-01-27T06:13:48.997Z,0.00
2018-01-27T06:13:49.595Z,0.00
2018-01-27T06:13:50.194Z,0.00
2018-01-27T06:13:50.809Z,0.00
2018-01-27T06:13:51.394Z,0.00
2018-01-27T06:13:51.994Z,0.00
2018-01-27T06:15:06.033Z,0.00
2018-01-27T06:15:06.628Z,0.00
2018-01-27T06:15:07.356Z,0.00
2018-01-27T06:15:07.843Z,0.00
2018-01-27T06:15:08.425Z,0.00
2018-01-27T06:15:09.024Z,0.00
2018-01-27T06:15:09.624Z,0.00
2018-01-27T06:16:04.128Z,0.00
2018-01-27T06:16:04.690Z,0.00
2018-01-27T06:16:05.290Z,0.00
2018-01-27T06:16:05.889Z,0.00
2018-01-27T06:16:06.494Z,0.00
2018-01-27T06:16:07.090Z,0.00
2018-01-27T06:16:07.690Z,0.00
2018-01-27T06:16:08.289Z,0.00
2018-01-27T06:17:01.752Z,0.00
2018-01-27T06:17:02.343Z,0.00
2018-01-27T06:17:02.943Z,0.00
2018-01-27T06:17:03.540Z,0.00
2018-01-27T06:17:04.145Z,0.00
2018-01-27T06:17:04.743Z,0.00
2018-01-27T06:17:05.342Z,0.00
2018-01-27T06:17:05.942Z,0.00
2018-01-27T06:18:00.421Z,0.00
2018-01-27T06:18:01.037Z,0.00
2018-01-27T06:18:01.619Z,0.00
2018-01-27T06:18:02.237Z,0.00
2018-01-27T06:18:02.818Z,0.00
2018-01-27T06:18:03.439Z,0.00
2018-01-27T06:18:04.069Z,0.00
2018-01-27T06:18:04.673Z,0.00
2018-01-27T06:19:08.723Z,0.00
2018-01-27T06:19:09.319Z,0.00
2018-01-27T06:19:09.917Z,0.00
2018-01-27T06:19:10.521Z,0.00
2018-01-27T06:19:11.120Z,0.00
2018-01-27T06:19:11.732Z,0.00
2018-01-27T06:19:12.318Z,0.00
2018-01-27T06:20:07.295Z,0.00
2018-01-27T06:20:07.892Z,0.00
2018-01-27T06:20:08.491Z,0.00
2018-01-27T06:20:09.091Z,0.00
2018-01-27T06:20:09.694Z,0.00
2018-01-27T06:20:10.291Z,0.00
2018-01-27T06:21:04.373Z,0.00
2018-01-27T06:21:04.931Z,0.00
2018-01-27T06:21:05.531Z,0.00
2018-01-27T06:21:06.132Z,0.00
2018-01-27T06:21:06.730Z,0.00
2018-01-27T06:21:07.331Z,0.00
2018-01-27T06:21:07.930Z,0.00
2018-01-27T06:21:08.529Z,0.00
2018-01-27T06:22:02.497Z,0.00
2018-01-27T06:22:03.095Z,0.00
2018-01-27T06:22:03.693Z,0.00
2018-01-27T06:22:04.295Z,0.00
2018-01-27T06:22:04.895Z,0.00
2018-01-27T06:22:05.508Z,0.00
2018-01-27T06:22:06.093Z,0.00
2018-01-27T06:22:59.637Z,0.00
2018-01-27T06:23:00.234Z,0.00
2018-01-27T06:23:00.833Z,0.00
2018-01-27T06:23:01.435Z,0.00
2018-01-27T06:23:02.035Z,0.00
2018-01-27T06:23:02.638Z,0.00
2018-01-27T06:23:03.232Z,0.00
2018-01-27T06:23:03.835Z,0.00
2018-01-27T06:23:57.288Z,0.00
2018-01-27T06:23:57.886Z,0.00
2018-01-27T06:23:58.486Z,0.00
2018-01-27T06:23:59.095Z,0.00
2018-01-27T06:23:59.684Z,0.00
2018-01-27T06:24:00.289Z,0.00
2018-01-27T06:24:00.887Z,0.00
2018-01-27T06:24:01.487Z,0.00
2018-01-27T06:24:54.941Z,0.00
2018-01-27T06:24:55.540Z,0.00
2018-01-27T06:24:56.140Z,0.00
2018-01-27T06:24:56.737Z,0.00
2018-01-27T06:24:57.337Z,0.00
2018-01-27T06:24:57.940Z,0.00
2018-01-27T06:24:58.537Z,0.00
2018-01-27T06:24:59.135Z,0.00
2018-01-27T06:25:52.592Z,0.00
2018-01-27T06:25:53.187Z,0.00
2018-01-27T06:25:53.791Z,0.00
2018-01-27T06:25:54.388Z,0.00
2018-01-27T06:25:54.988Z,0.00
2018-01-27T06:25:55.592Z,0.00
2018-01-27T06:25:56.187Z,0.00
2018-01-27T06:25:56.787Z,0.00
2018-01-27T06:27:02.974Z,0.00
2018-01-27T06:27:03.538Z,0.00
2018-01-27T06:27:04.144Z,0.00
2018-01-27T06:27:04.745Z,0.00
2018-01-27T06:27:05.338Z,0.00
2018-01-27T06:27:05.942Z,0.00
2018-01-27T06:27:06.537Z,0.00
2018-01-27T06:27:07.138Z,0.00
2018-01-27T06:28:00.701Z,0.00
2018-01-27T06:28:01.293Z,0.00
2018-01-27T06:28:01.894Z,0.00
2018-01-27T06:28:02.492Z,0.00
2018-01-27T06:28:03.092Z,0.00
2018-01-27T06:28:03.695Z,0.00
2018-01-27T06:28:04.292Z,0.00
2018-01-27T06:28:04.891Z,0.00
2018-01-27T06:28:59.371Z,0.00
2018-01-27T06:28:59.968Z,0.00
2018-01-27T06:29:00.567Z,0.00
2018-01-27T06:29:01.167Z,0.00
2018-01-27T06:29:01.767Z,0.00
2018-01-27T06:29:02.371Z,0.00
2018-01-27T06:29:02.967Z,0.00
2018-01-27T06:29:03.567Z,0.00
2018-01-27T06:30:02.043Z,0.00
2018-01-27T06:30:02.638Z,0.00
2018-01-27T06:30:03.237Z,0.00
2018-01-27T06:30:03.840Z,0.00
2018-01-27T06:30:04.438Z,0.00
2018-01-27T06:30:05.049Z,0.00
2018-01-27T06:30:05.642Z,0.00
2018-01-27T06:30:06.237Z,0.00
2018-01-27T06:30:06.836Z,0.00
2018-01-27T06:30:07.438Z,0.00
2018-01-27T06:30:08.036Z,0.00
2018-01-27T06:30:08.635Z,0.00
2018-01-27T06:30:09.239Z,0.00
2018-01-27T06:30:09.836Z,0.00
2018-01-27T06:30:10.437Z,0.00
2018-01-27T06:30:11.035Z,0.00
2018-01-27T07:08:14.614Z,24.00
2018-01-27T07:08:15.185Z,24.00
2018-01-27T07:08:15.783Z,24.00
2018-01-27T07:08:16.379Z,24.00
2018-01-27T07:08:16.982Z,24.00
2018-01-27T07:09:10.499Z,28.00
2018-01-27T07:09:11.094Z,28.00
2018-01-27T07:09:11.706Z,28.00
2018-01-27T07:09:12.293Z,28.00
2018-01-27T07:09:12.893Z,28.00
2018-01-27T07:09:13.493Z,28.00
2018-01-27T07:09:14.091Z,28.00
2018-01-27T07:09:14.693Z,28.00
2018-01-27T07:10:18.799Z,28.00
2018-01-27T07:10:19.394Z,32.00
2018-01-27T07:10:19.994Z,32.00
2018-01-27T07:10:20.597Z,32.00
2018-01-27T07:10:21.194Z,32.00
2018-01-27T07:10:21.794Z,32.00
2018-01-27T07:10:22.394Z,32.00
2018-01-27T07:11:26.384Z,36.00
2018-01-27T07:11:26.984Z,36.00
2018-01-27T07:11:27.579Z,36.00
2018-01-27T07:11:28.183Z,36.00
2018-01-27T07:11:28.779Z,36.00
2018-01-27T07:11:29.379Z,36.00
2018-01-27T07:11:29.978Z,36.00
2018-01-27T07:12:24.522Z,40.00
2018-01-27T07:12:25.026Z,40.00
2018-01-27T07:12:25.626Z,40.00
2018-01-27T07:12:26.226Z,40.00
2018-01-27T07:12:26.825Z,40.00
2018-01-27T07:12:27.424Z,40.00
2018-01-27T07:13:43.440Z,48.00
2018-01-27T07:13:43.996Z,48.00
2018-01-27T07:13:44.596Z,52.00
2018-01-27T07:13:45.196Z,52.00
2018-01-27T07:13:45.792Z,52.00
2018-01-27T07:13:46.401Z,52.00
2018-01-27T07:14:47.911Z,56.00
2018-01-27T07:14:48.506Z,56.00
2018-01-27T07:14:49.132Z,56.00
2018-01-27T07:14:49.715Z,56.00
2018-01-27T07:14:50.306Z,56.00
2018-01-27T07:14:50.931Z,56.00
2018-01-27T07:14:51.507Z,56.00
2018-01-27T07:14:52.105Z,56.00
2018-01-27T07:14:52.723Z,56.00
2018-01-27T07:14:53.305Z,56.00
2018-01-27T07:14:53.914Z,56.00
2018-01-27T07:14:54.508Z,60.00
2018-01-27T07:15:48.528Z,64.00
2018-01-27T07:15:49.128Z,64.00
2018-01-27T07:15:49.726Z,64.00
2018-01-27T07:15:50.325Z,64.00
2018-01-27T07:15:50.925Z,64.00
2018-01-27T07:15:51.525Z,68.00
2018-01-27T07:15:52.127Z,68.00
2018-01-27T07:16:46.080Z,72.00
2018-01-27T07:16:46.678Z,72.00
2018-01-27T07:16:47.277Z,72.00
2018-01-27T07:16:47.880Z,76.00
2018-01-27T07:16:48.474Z,76.00
2018-01-27T07:16:49.073Z,76.00
2018-01-27T07:16:49.674Z,76.00
2018-01-27T07:17:43.630Z,84.00
2018-01-27T07:17:44.227Z,84.00
2018-01-27T07:17:44.824Z,84.00
2018-01-27T07:17:45.427Z,80.00
2018-01-27T07:17:46.053Z,80.00
2018-01-27T07:17:46.625Z,84.00
2018-01-27T07:17:47.225Z,84.00
2018-01-27T07:18:41.179Z,92.00
2018-01-27T07:18:41.776Z,92.00
2018-01-27T07:18:42.376Z,92.00
2018-01-27T07:18:42.975Z,92.00
2018-01-27T07:18:43.575Z,92.00
2018-01-27T07:18:44.174Z,92.00
2018-01-27T07:18:44.779Z,92.00
2018-01-27T07:19:38.352Z,100.00
2018-01-27T07:19:38.917Z,100.00
2018-01-27T07:19:39.514Z,100.00
2018-01-27T07:19:40.116Z,104.00
2018-01-27T07:19:40.717Z,104.00
2018-01-27T07:19:41.313Z,104.00
2018-01-27T07:19:41.913Z,100.00
2018-01-27T07:19:42.513Z,100.00
2018-01-27T07:20:35.970Z,108.00
2018-01-27T07:20:36.568Z,108.00
2018-01-27T07:20:37.167Z,108.00
2018-01-27T07:20:37.768Z,108.00
2018-01-27T07:20:38.387Z,108.00
2018-01-27T07:20:38.965Z,108.00
2018-01-27T07:20:39.570Z,108.00
2018-01-27T07:20:40.169Z,108.00
2018-01-27T07:21:36.693Z,112.00
2018-01-27T07:21:37.290Z,112.00
2018-01-27T07:21:37.891Z,112.00
2018-01-27T07:22:34.344Z,116.00
2018-01-27T07:22:34.942Z,116.00
2018-01-27T07:22:35.541Z,116.00
2018-01-27T07:23:29.029Z,116.00
2018-01-27T07:23:29.624Z,116.00
2018-01-27T07:23:30.225Z,116.00
2018-01-27T07:23:30.828Z,116.00
2018-01-27T07:23:31.424Z,116.00
2018-01-27T07:23:32.027Z,116.00
2018-01-27T07:23:32.624Z,116.00
2018-01-27T07:23:33.224Z,116.00
2018-01-27T07:24:28.241Z,124.00
2018-01-27T07:24:28.823Z,124.00
2018-01-27T07:24:29.412Z,124.00
2018-01-27T07:24:30.014Z,124.00
2018-01-27T07:24:30.611Z,124.00
2018-01-27T07:24:31.215Z,128.00
2018-01-27T07:25:36.212Z,140.00
2018-01-27T07:25:36.807Z,140.00
2018-01-27T07:25:37.407Z,140.00
2018-01-27T07:25:38.009Z,140.00
2018-01-27T07:25:38.605Z,140.00
2018-01-27T07:25:39.210Z,140.00
2018-01-27T08:14:22.977Z,1260.00
2018-01-27T08:14:23.483Z,1260.00
2018-01-27T08:14:24.082Z,1260.00
2018-01-27T08:14:24.745Z,1260.00
2018-01-27T08:14:25.390Z,1264.00
2018-01-27T08:14:25.882Z,1264.00
2018-01-27T08:14:26.478Z,1264.00
2018-01-27T08:14:27.079Z,1260.00
2018-01-27T08:14:27.679Z,1264.00
2018-01-27T08:14:28.282Z,1264.00
2018-01-27T08:14:28.879Z,1264.00
2018-01-27T08:16:00.844Z,1312.00
2018-01-27T08:16:01.418Z,1312.00
2018-01-27T08:16:02.020Z,1312.00
2018-01-27T08:16:02.617Z,1312.00
2018-01-27T08:16:03.224Z,1308.00
2018-01-27T08:16:03.823Z,1312.00
2018-01-27T08:16:04.415Z,1308.00
2018-01-27T08:16:05.015Z,1308.00
2018-01-27T08:16:05.615Z,1304.00
2018-01-27T08:16:06.220Z,1308.00
2018-01-27T08:17:00.229Z,1268.00
2018-01-27T08:17:00.942Z,1256.00
2018-01-27T08:17:01.540Z,1256.00
2018-01-27T08:17:02.801Z,1248.00
2018-01-27T08:17:03.785Z,1280.00
2018-01-27T08:17:04.512Z,1284.00
2018-01-27T08:17:58.786Z,1220.00
2018-01-27T08:17:59.383Z,1220.00
2018-01-27T08:17:59.983Z,1220.00
2018-01-27T08:18:00.582Z,1220.00
2018-01-27T08:18:01.214Z,1216.00
2018-01-27T08:18:01.781Z,1216.00
2018-01-27T08:18:02.382Z,1220.00
2018-01-27T08:18:02.980Z,1216.00
2018-01-27T08:19:31.601Z,1164.00
2018-01-27T08:19:32.162Z,1164.00
2018-01-27T08:19:32.760Z,1164.00
2018-01-27T08:19:33.360Z,1164.00
2018-01-27T08:19:33.958Z,1168.00
2018-01-27T08:19:34.560Z,1160.00
2018-01-27T08:19:35.157Z,1164.00
2018-01-27T08:19:35.758Z,1164.00
2018-01-27T08:19:36.359Z,1164.00
2018-01-27T08:19:36.958Z,1164.00
2018-01-27T08:19:38.512Z,1164.00
2018-01-27T08:19:39.019Z,1164.00
2018-01-27T08:19:39.618Z,1164.00
2018-01-27T08:19:40.219Z,1164.00
2018-01-27T08:19:40.817Z,1164.00
2018-01-27T08:20:48.876Z,1200.00
2018-01-27T08:20:49.473Z,1200.00
2018-01-27T08:23:57.800Z,1252.00
2018-01-27T09:16:04.530Z,1456.00
2018-01-27T09:16:05.037Z,1464.00
2018-01-27T09:16:05.635Z,1464.00
2018-01-27T09:16:06.234Z,1464.00
2018-01-27T09:16:06.834Z,1460.00
2018-01-27T09:18:47.749Z,1460.00
2018-01-27T09:18:48.009Z,1468.00
2018-01-27T09:18:48.623Z,1468.00
2018-01-27T09:21:30.919Z,2008.00
2018-01-27T09:21:31.483Z,2012.00
2018-01-27T09:21:32.084Z,2020.00
2018-01-27T09:21:32.687Z,2028.00
2018-01-27T09:21:33.282Z,2036.00
2018-01-27T09:21:34.072Z,2044.00
2018-01-27T09:21:34.583Z,2052.00
2018-01-27T09:21:35.176Z,2056.00
2018-01-27T09:21:35.778Z,2064.00
2018-01-27T09:21:36.377Z,2072.00
2018-01-27T09:21:36.977Z,2076.00
2018-01-27T09:21:37.578Z,2084.00
2018-01-27T09:22:35.678Z,2380.00
2018-01-27T09:22:36.187Z,2380.00
2018-01-27T09:22:37.716Z,2380.00
2018-01-27T09:22:38.069Z,2376.00
2018-01-27T09:22:38.669Z,2380.00
2018-01-27T09:22:39.267Z,2376.00
2018-01-27T09:22:39.870Z,2380.00